M I D A S
Marine Information and Data Acquisition System
Tripno 1622 of the Zeeleeuw from 2008-12-18 08:26:27 to 2008-12-18 15:57:38
Back to CruiseResearch ActivitiesStationsMapUnderway DataData graphs

EquipmentUnitsComment
TimeDGPSUTC
LatitudeDGPSDM.mWGS84
LongitudeDGPSDM.mWGS84
HeadingGyrodeg 
SOGDGPSknotsSpeed over ground
COGDGPSdegCourse over ground
DepthEcho soundermeters200 kHz
Missing or incorrect values are displayed as -999
Navigation data collected by the RV Zeeleeuw from 2008-12-18 08:28:12 to 2008-12-18 16:00:09
Time Latitude Longitude Heading SOG COG Depth
2008-12-18 08:29:17 51°13.676 2°55.889 107.7 3.8 289 -999
2008-12-18 08:30:17 51°13.695 2°55.783 93.7 3.9 278 -999
2008-12-18 08:31:17 51°13.701 2°55.734 61.9 0.8 14 11.9
2008-12-18 08:32:17 51°13.702 2°55.721 14 1.8 350 15.1
2008-12-18 08:33:17 51°13.788 2°55.663 339.2 6.6 338 10.5
2008-12-18 08:34:17 51°13.908 2°55.581 337.6 8.8 336 10.3
2008-12-18 08:35:17 51°14.044 2°55.485 336.6 9 335 10.2
2008-12-18 08:36:17 51°14.176 2°55.372 329.3 9.1 326 10.3
2008-12-18 08:37:17 51°14.292 2°55.204 314.9 9.7 314 10.4
2008-12-18 08:38:17 51°14.401 2°55.013 309.1 9.9 307 10.7
2008-12-18 08:39:17 51°14.502 2°54.762 305.4 11.9 296 10.3
2008-12-18 08:40:17 51°14.489 2°54.46 254 12.1 253 10.6
2008-12-18 08:41:17 51°14.398 2°54.171 239.3 12.2 240 9
2008-12-18 08:42:17 51°14.296 2°53.889 241.8 12.3 242 8.9
2008-12-18 08:43:17 51°14.202 2°53.6 242.3 12.3 243 9.2
2008-12-18 08:44:17 51°14.106 2°53.312 241.4 12.2 242 9.4
2008-12-18 08:45:17 51°14.009 2°53.028 239.8 12.2 241 9.8
2008-12-18 08:46:17 51°13.912 2°52.739 242 12.6 241 9.9
2008-12-18 08:47:17 51°13.812 2°52.442 242.2 12.8 242 10
2008-12-18 08:48:17 51°13.714 2°52.142 242.7 12.7 243 10.1
2008-12-18 08:49:17 51°13.619 2°51.856 242.6 10.7 243 10.3
2008-12-18 08:50:17 51°13.539 2°51.63 240.1 9.3 240 10.5
2008-12-18 08:51:17 51°13.486 2°51.485 232.3 4.4 232 10.6
2008-12-18 08:52:17 51°13.465 2°51.446 192.3 0.8 236 10.6
2008-12-18 08:53:17 51°13.459 2°51.434 172.3 0.4 234 10.7
2008-12-18 08:54:17 51°13.457 2°51.426 152.7 0.2 260 10.6
2008-12-18 08:55:17 51°13.456 2°51.419 134.3 0.3 267 10.6
2008-12-18 08:56:17 51°13.457 2°51.412 117 0.2 286 10.6
2008-12-18 08:57:17 51°13.457 2°51.405 105.5 0.3 278 10.6
2008-12-18 08:58:17 51°13.458 2°51.399 100.5 0.3 275 10.6
2008-12-18 08:59:17 51°13.459 2°51.393 101.1 0.3 267 10.6
2008-12-18 09:00:17 51°13.466 2°51.458 73.2 5 65 10.4
2008-12-18 09:01:17 51°13.506 2°51.551 53.5 2.6 43 10.5
2008-12-18 09:02:17 51°13.524 2°51.556 5.9 0.8 327 10.5
2008-12-18 09:03:17 51°13.533 2°51.543 347.9 0.7 309 10.5
2008-12-18 09:04:17 51°13.541 2°51.527 338.3 0.8 310 10.5
2008-12-18 09:05:17 51°13.548 2°51.51 328.9 0.8 300 10.5
2008-12-18 09:06:17 51°13.554 2°51.492 320.5 1 310 10.5
2008-12-18 09:07:17 51°13.604 2°51.487 35.8 3.8 39 10.5
2008-12-18 09:08:17 51°13.674 2°51.645 59.7 10.6 57 10.3
2008-12-18 09:09:17 51°13.764 2°51.909 65.6 11.5 63 10.1
2008-12-18 09:10:17 51°13.854 2°52.176 63.8 11.3 62 10
2008-12-18 09:11:17 51°13.938 2°52.447 65.9 11.3 64 10
2008-12-18 09:12:17 51°14.027 2°52.713 63.8 11.3 63 9.9
2008-12-18 09:13:17 51°14.111 2°52.984 64.6 11.4 62 9.7
2008-12-18 09:14:17 51°14.198 2°53.253 66.1 11.4 61 9.4
2008-12-18 09:15:17 51°14.285 2°53.519 62.9 11.3 58 8.9
2008-12-18 09:16:17 51°14.406 2°53.744 44.7 11.2 36 9
2008-12-18 09:17:17 51°14.589 2°53.803 5.3 11.6 357 9.1
2008-12-18 09:18:17 51°14.774 2°53.699 334.9 12.2 324 9.6
2008-12-18 09:19:17 51°14.893 2°53.439 295.9 12.4 290 9.5
2008-12-18 09:20:17 51°14.908 2°53.109 268.7 12.7 267 9.4
2008-12-18 09:21:17 51°14.871 2°52.781 256 12.6 256 9
2008-12-18 09:22:17 51°14.82 2°52.458 256.3 12.6 255 9
2008-12-18 09:23:17 51°14.761 2°52.137 255.8 12.7 255 9
2008-12-18 09:24:17 51°14.723 2°51.805 262.8 12.8 263 9.1
2008-12-18 09:25:17 51°14.698 2°51.466 265.2 12.9 263 9.4
2008-12-18 09:26:17 51°14.668 2°51.127 262.3 13 261 9.7
2008-12-18 09:27:17 51°14.631 2°50.789 261.6 13 260 10
2008-12-18 09:28:17 51°14.593 2°50.451 261.6 13 260 10.4
2008-12-18 09:29:17 51°14.555 2°50.112 261.7 13 260 10.6
2008-12-18 09:30:17 51°14.515 2°49.774 260.6 13 260 10.8
2008-12-18 09:31:17 51°14.472 2°49.436 259.1 13 257 10.9
2008-12-18 09:32:17 51°14.435 2°49.097 262 13 260 10.8
2008-12-18 09:33:17 51°14.399 2°48.756 261.6 13 260 10.7
2008-12-18 09:34:17 51°14.362 2°48.418 261.9 12.9 260 10.7
2008-12-18 09:35:17 51°14.325 2°48.079 261.6 13 260 10.6
2008-12-18 09:36:17 51°14.288 2°47.74 261.5 13 260 10.1
2008-12-18 09:37:17 51°14.252 2°47.403 261.6 12.8 261 9.3
2008-12-18 09:38:17 51°14.216 2°47.069 261 12.7 260 8
2008-12-18 09:39:17 51°14.174 2°46.74 258 12.7 258 8.1
2008-12-18 09:40:17 51°14.133 2°46.41 259.8 12.8 260 8.8
2008-12-18 09:41:17 51°14.063 2°46.092 244.6 12.7 241 9.4
2008-12-18 09:42:17 51°13.935 2°45.832 223.8 12.5 224 8.7
2008-12-18 09:43:17 51°13.776 2°45.622 216.2 12.3 217 7.7
2008-12-18 09:44:17 51°13.615 2°45.423 215.8 12.2 219 7
2008-12-18 09:45:17 51°13.455 2°45.215 217.4 12.7 220 8.2
2008-12-18 09:46:17 51°13.299 2°44.985 221.8 12.8 223 10
2008-12-18 09:47:17 51°13.143 2°44.754 221.2 12.8 222 10.8
2008-12-18 09:48:17 51°12.985 2°44.525 221.6 12.8 221 11.1
2008-12-18 09:49:17 51°12.827 2°44.294 220.8 12.9 223 11.3
2008-12-18 09:50:17 51°12.668 2°44.064 220.9 12.9 223 11.5
2008-12-18 09:51:17 51°12.508 2°43.839 218 12.7 220 11.1
2008-12-18 09:52:17 51°12.345 2°43.624 217.9 12.6 219 10.2
2008-12-18 09:53:17 51°12.188 2°43.399 222.2 12.7 224 10
2008-12-18 09:54:17 51°12.034 2°43.17 222 12.6 220 8.4
2008-12-18 09:55:17 51°11.865 2°42.979 208.8 12.4 211 8.1
2008-12-18 09:56:17 51°11.68 2°42.842 201.3 12.3 204 8.1
2008-12-18 09:57:17 51°11.487 2°42.719 199.1 12.4 200 9.7
2008-12-18 09:58:17 51°11.292 2°42.605 194.6 12.6 199 10.3
2008-12-18 09:59:17 51°11.092 2°42.519 190 12.5 195 11.2
2008-12-18 10:00:17 51°10.889 2°42.449 185.8 12.3 189 11
2008-12-18 10:01:17 51°10.686 2°42.411 180.9 12.2 184 10.1
2008-12-18 10:02:17 51°10.486 2°42.393 175.8 11.9 179 8.4
2008-12-18 10:03:17 51°10.316 2°42.445 151.5 7.5 147 7.4
2008-12-18 10:04:17 51°10.237 2°42.559 133.4 6.1 141 7.3
2008-12-18 10:05:17 51°10.168 2°42.645 133.6 4.2 141 7.4
2008-12-18 10:06:17 51°10.124 2°42.691 141.8 2 161 5.6
2008-12-18 10:07:17 51°10.107 2°42.686 163.2 0.7 217 7.5
2008-12-18 10:08:18 51°10.1 2°42.674 166.7 0.6 229 7.6
2008-12-18 10:09:17 51°10.094 2°42.662 167.2 0.5 240 5.6
2008-12-18 10:10:18 51°10.092 2°42.651 163.5 0.4 251 7.5
2008-12-18 10:11:18 51°10.091 2°42.639 154.8 0.4 262 7.5
2008-12-18 10:12:18 51°10.09 2°42.628 144.6 0.4 271 5.5
2008-12-18 10:13:18 51°10.084 2°42.621 142.6 1.3 173 7.5
2008-12-18 10:14:18 51°10.037 2°42.592 207.2 4.1 225 7.5
2008-12-18 10:15:18 51°10.021 2°42.471 276.8 6.4 274 7.4
2008-12-18 10:16:18 51°10.051 2°42.211 285.3 11.5 284 6.9
2008-12-18 10:17:18 51°10.098 2°41.902 285.5 12.2 283 6.8
2008-12-18 10:18:18 51°10.112 2°41.574 271 12.6 270 7.3
2008-12-18 10:19:18 51°10.094 2°41.24 261.9 12.8 261 7.7
2008-12-18 10:20:18 51°10.048 2°40.909 256.6 12.8 257 8
2008-12-18 10:21:18 51°10.002 2°40.578 257.3 12.8 256 8.4
2008-12-18 10:22:18 51°9.957 2°40.246 260.4 12.9 262 8.6
2008-12-18 10:23:18 51°9.949 2°39.904 270.3 12.9 270 9.1
2008-12-18 10:24:18 51°9.936 2°39.563 264.7 13 264 9.4
2008-12-18 10:25:18 51°9.914 2°39.22 264.3 13 265 10.2
2008-12-18 10:26:18 51°9.89 2°38.876 264.1 13.1 264 11
2008-12-18 10:27:18 51°9.866 2°38.53 264.1 13.2 264 12.1
2008-12-18 10:28:18 51°9.842 2°38.181 264.3 13.3 264 13.1
2008-12-18 10:29:18 51°9.818 2°37.83 263.9 13.3 264 14.3
2008-12-18 10:30:18 51°9.794 2°37.485 263.6 11.8 264 14.8
2008-12-18 10:31:18 51°9.756 2°37.301 235.6 5.2 240 14.9
2008-12-18 10:32:18 51°9.716 2°37.217 210.1 3.2 224 14.8
2008-12-18 10:33:18 51°9.683 2°37.175 185.8 2.1 215 14.5
2008-12-18 10:34:17 51°9.66 2°37.15 172.9 1.5 213 14.5
2008-12-18 10:35:18 51°9.624 2°37.135 166.1 2.9 187 14.6
2008-12-18 10:36:18 51°9.575 2°37.12 174.4 3.1 196 14.5
2008-12-18 10:37:18 51°9.523 2°37.076 203.8 4.2 217 14.4
2008-12-18 10:38:18 51°9.479 2°37.002 220.9 3.7 233 13.8
2008-12-18 10:39:18 51°9.449 2°36.924 234.1 3.2 242 13.9
2008-12-18 10:40:18 51°9.431 2°36.855 241.7 2.6 251 14.3
2008-12-18 10:41:17 51°9.419 2°36.795 243.4 2.3 254 14.4
2008-12-18 10:42:18 51°9.409 2°36.738 242.4 2.2 254 14.3
2008-12-18 10:43:18 51°9.398 2°36.685 238.8 2.1 254 14.4
2008-12-18 10:44:18 51°9.388 2°36.631 243 2.2 252 14.4
2008-12-18 10:45:18 51°9.376 2°36.561 252.5 3.1 256 14.4
2008-12-18 10:46:18 51°9.365 2°36.476 256.7 3.4 259 14.4
2008-12-18 10:47:18 51°9.355 2°36.392 258.6 3.1 260 14.4
2008-12-18 10:48:18 51°9.347 2°36.313 261.2 3 263 14.1
2008-12-18 10:49:18 51°9.342 2°36.235 264.5 2.9 266 14.3
2008-12-18 10:50:18 51°9.338 2°36.16 264.8 2.9 266 14.4
2008-12-18 10:51:18 51°9.332 2°36.085 263 2.8 263 14.8
2008-12-18 10:52:18 51°9.327 2°36.012 262.3 2.8 262 14.4
2008-12-18 10:53:18 51°9.319 2°35.937 259.1 3 258 14.5
2008-12-18 10:54:18 51°9.306 2°35.857 256.3 3.2 255 14.9
2008-12-18 10:55:18 51°9.293 2°35.774 261.2 3.3 259 14.6
2008-12-18 10:56:18 51°9.283 2°35.688 264.2 3.3 260 14.9
2008-12-18 10:57:18 51°9.273 2°35.601 262.1 3.3 257 15.2
2008-12-18 10:58:18 51°9.26 2°35.515 261 3.3 257 14.8
2008-12-18 10:59:18 51°9.247 2°35.429 260.3 3.3 255 15.2
2008-12-18 11:00:18 51°9.233 2°35.343 260.8 3.4 256 14.4
2008-12-18 11:01:18 51°9.221 2°35.256 261.8 3.4 258 15.2
2008-12-18 11:02:18 51°9.209 2°35.169 261.6 3.4 257 15
2008-12-18 11:03:18 51°9.197 2°35.082 261.8 3.3 258 15.6
2008-12-18 11:04:18 51°9.185 2°34.995 262.1 3.3 257 15.7
2008-12-18 11:05:18 51°9.179 2°34.91 281.2 3.2 271 15
2008-12-18 11:06:18 51°9.19 2°34.836 311.7 2.4 288 15.3
2008-12-18 11:07:18 51°9.2 2°34.782 312.4 1.9 285 15.8
2008-12-18 11:08:18 51°9.206 2°34.736 304.9 1.7 277 16
2008-12-18 11:09:18 51°9.215 2°34.679 310.4 3.2 295 13.1
2008-12-18 11:10:18 51°9.261 2°34.623 1.6 3.6 348 16.8
2008-12-18 11:11:18 51°9.328 2°34.683 49 6.5 42 16.5
2008-12-18 11:12:18 51°9.438 2°34.837 46.3 10 41 17
2008-12-18 11:13:18 51°9.568 2°35.029 49 11 44 17.5
2008-12-18 11:14:18 51°9.704 2°35.227 46.5 11.1 39 17
2008-12-18 11:15:18 51°9.851 2°35.406 40.2 11.1 33 16.6
2008-12-18 11:16:18 51°10.01 2°35.56 36.9 11.2 31 14.2
2008-12-18 11:17:18 51°10.171 2°35.708 34.9 11.1 29 9.4
2008-12-18 11:18:18 51°10.329 2°35.863 35.8 11.1 33 8.9
2008-12-18 11:19:18 51°10.484 2°36.022 36.2 11.1 32 9.2
2008-12-18 11:20:18 51°10.637 2°36.184 37 11 34 9.1
2008-12-18 11:21:18 51°10.789 2°36.346 36.1 11 34 9.6
2008-12-18 11:22:18 51°10.939 2°36.51 36.8 11 34 10.4
2008-12-18 11:23:18 51°11.091 2°36.674 35.3 11 32 10.9
2008-12-18 11:24:18 51°11.247 2°36.829 36 11.1 34 11
2008-12-18 11:25:18 51°11.404 2°36.981 31.5 11 26 11.8
2008-12-18 11:26:18 51°11.569 2°37.11 30.7 11 29 11.6
2008-12-18 11:27:18 51°11.733 2°37.241 28.5 11 26 11.5
2008-12-18 11:28:18 51°11.89 2°37.389 35.4 11 33 11.5
2008-12-18 11:29:18 51°12.046 2°37.546 34.3 11.1 32 11.2
2008-12-18 11:30:18 51°12.206 2°37.69 32.2 11 31 11.1
2008-12-18 11:31:18 51°12.363 2°37.839 32 11 29 11.2
2008-12-18 11:32:18 51°12.523 2°37.982 31.9 11 29 11.4
2008-12-18 11:33:18 51°12.682 2°38.127 32.9 11 30 11.5
2008-12-18 11:34:18 51°12.839 2°38.28 35.5 11 33 11.7
2008-12-18 11:35:18 51°12.996 2°38.434 34.7 11.1 30 12.3
2008-12-18 11:36:18 51°13.156 2°38.58 32 11.1 29 12.6
2008-12-18 11:37:18 51°13.318 2°38.72 31.9 11 30 12.6
2008-12-18 11:38:18 51°13.482 2°38.853 30 11.1 26 12.3
2008-12-18 11:39:18 51°13.647 2°38.989 31.6 11.2 28 12.8
2008-12-18 11:40:18 51°13.813 2°39.123 30.1 11.2 28 12.8
2008-12-18 11:41:17 51°13.974 2°39.262 32.2 11.1 29 12.8
2008-12-18 11:42:17 51°14.136 2°39.409 32 11.2 31 12.2
2008-12-18 11:43:17 51°14.303 2°39.537 24.4 11.1 21 11.7
2008-12-18 11:44:17 51°14.476 2°39.646 24.1 11.3 22 11.7
2008-12-18 11:45:17 51°14.65 2°39.76 25.4 11.3 24 12.6
2008-12-18 11:46:17 51°14.821 2°39.881 26.8 11.3 21 13.1
2008-12-18 11:47:17 51°14.986 2°40.018 32.1 11.3 30 12.3
2008-12-18 11:48:17 51°15.147 2°40.164 30.6 11.1 28 11.9
2008-12-18 11:49:17 51°15.31 2°40.304 31.6 11.2 29 12.3
2008-12-18 11:50:17 51°15.47 2°40.452 31.5 11.1 30 13.1
2008-12-18 11:51:17 51°15.634 2°40.586 30.3 11.1 28 13.7
2008-12-18 11:52:17 51°15.795 2°40.731 31.3 11.1 31 14.1
2008-12-18 11:53:17 51°15.959 2°40.872 30.8 11.2 29 15.4
2008-12-18 11:54:18 51°16.125 2°41.016 30.3 11.2 30 15.9
2008-12-18 11:55:17 51°16.287 2°41.15 30.5 11.2 27 16.7
2008-12-18 11:56:18 51°16.454 2°41.291 30.8 11.1 27 17.2
2008-12-18 11:57:17 51°16.615 2°41.424 31.8 11.2 30 18.1
2008-12-18 11:58:17 51°16.775 2°41.57 33.4 11.1 31 19.2
2008-12-18 11:59:17 51°16.934 2°41.716 32.8 11 30 20
2008-12-18 12:00:18 51°17.094 2°41.865 34.4 11 33 20.9
2008-12-18 12:01:18 51°17.254 2°42.006 32.2 11 27 21.8
2008-12-18 12:02:17 51°17.405 2°42.156 39.5 10.9 36 22.3
2008-12-18 12:03:18 51°17.55 2°42.336 45.8 10.8 45 22.3
2008-12-18 12:04:17 51°17.632 2°42.583 69.2 10.9 72 21.4
2008-12-18 12:05:17 51°17.699 2°42.855 65.3 11.1 62 19.5
2008-12-18 12:06:17 51°17.795 2°43.106 58.8 11.1 56 14.2
2008-12-18 12:07:17 51°17.892 2°43.354 60.4 11.1 58 11.4
2008-12-18 12:08:17 51°17.986 2°43.604 60.8 11 61 10.8
2008-12-18 12:09:17 51°18.081 2°43.85 61.6 10.8 59 10.7
2008-12-18 12:10:18 51°18.176 2°44.104 60 10.9 60 11.9
2008-12-18 12:11:17 51°18.269 2°44.346 59.8 10.9 59 13.6
2008-12-18 12:12:18 51°18.372 2°44.587 56.2 10.7 56 14.5
2008-12-18 12:13:17 51°18.471 2°44.819 57.6 10.7 56 16.1
2008-12-18 12:14:17 51°18.565 2°45.06 60.3 10.8 60 16.9
2008-12-18 12:15:17 51°18.656 2°45.307 60.5 10.8 60 18.4
2008-12-18 12:16:17 51°18.751 2°45.547 60 10.7 56 19.3
2008-12-18 12:17:17 51°18.847 2°45.787 58.2 10.7 57 19.5
2008-12-18 12:18:17 51°18.942 2°46.027 59.8 10.8 58 20.3
2008-12-18 12:19:18 51°19.038 2°46.272 60.1 10.7 58 20.6
2008-12-18 12:20:17 51°19.131 2°46.511 60.7 10.7 59 20.5
2008-12-18 12:21:18 51°19.22 2°46.762 62.7 10.7 63 20.6
2008-12-18 12:22:17 51°19.306 2°47.009 63.4 11 63 20.6
2008-12-18 12:23:17 51°19.395 2°47.26 60.5 10.7 60 20.7
2008-12-18 12:24:17 51°19.482 2°47.51 64.3 10.7 61 21
2008-12-18 12:25:17 51°19.567 2°47.764 62.7 11 63 21
2008-12-18 12:26:17 51°19.655 2°48.015 60.7 10.8 62 21.2
2008-12-18 12:27:17 51°19.746 2°48.267 63.6 11.1 58 21.3
2008-12-18 12:28:18 51°19.838 2°48.524 60.5 10.8 61 21.1
2008-12-18 12:29:17 51°19.927 2°48.769 62.4 10.9 61 20.9
2008-12-18 12:30:18 51°20.018 2°49.026 63.1 11 61 20.6
2008-12-18 12:31:17 51°20.103 2°49.278 61.4 11 60 20.2
2008-12-18 12:32:17 51°20.192 2°49.53 61 10.8 61 20
2008-12-18 12:33:17 51°20.28 2°49.785 62.7 11 61 19.4
2008-12-18 12:34:17 51°20.369 2°50.036 63 10.9 62 18.9
2008-12-18 12:35:18 51°20.461 2°50.291 59 10.9 55 18.6
2008-12-18 12:36:17 51°20.563 2°50.523 55.7 10.8 56 18.5
2008-12-18 12:37:18 51°20.671 2°50.763 56.9 11.1 56 18.3
2008-12-18 12:38:17 51°20.77 2°51 58.6 10.9 58 18
2008-12-18 12:39:18 51°20.867 2°51.252 58.3 10.8 59 17.8
2008-12-18 12:40:17 51°20.966 2°51.488 56.2 10.8 58 17.8
2008-12-18 12:41:17 51°21.064 2°51.734 60.1 11 59 17.5
2008-12-18 12:42:17 51°21.16 2°51.982 57.4 10.9 56 17
2008-12-18 12:43:17 51°21.261 2°52.225 58.9 11.1 58 16.9
2008-12-18 12:44:18 51°21.362 2°52.473 58 11 56 17.1
2008-12-18 12:45:17 51°21.46 2°52.716 57.2 11.1 56 17
2008-12-18 12:46:18 51°21.561 2°52.964 59.7 10.9 58 17.2
2008-12-18 12:47:17 51°21.661 2°53.203 57.1 10.9 56 17
2008-12-18 12:48:18 51°21.761 2°53.453 58.1 11.1 58 17.2
2008-12-18 12:49:18 51°21.86 2°53.7 58.7 11 58 18
2008-12-18 12:50:17 51°21.924 2°53.969 75.4 11 79 18.1
2008-12-18 12:51:17 51°21.95 2°54.262 81.6 11.2 82 17.9
2008-12-18 12:52:17 51°21.975 2°54.558 81.9 11.3 82 17.6
2008-12-18 12:53:18 51°22 2°54.86 77.7 11.1 80 17.5
2008-12-18 12:54:17 51°22.041 2°55.143 74.9 11.1 75 17.4
2008-12-18 12:55:18 51°22.088 2°55.433 76.5 11.2 77 17.4
2008-12-18 12:56:17 51°22.127 2°55.715 74.9 11 76 17.3
2008-12-18 12:57:18 51°22.175 2°56.004 72.8 11.1 72 17.3
2008-12-18 12:58:18 51°22.228 2°56.288 72.9 11.2 74 17.4
2008-12-18 12:59:17 51°22.285 2°56.566 69.8 11.1 71 17.4
2008-12-18 13:00:18 51°22.346 2°56.852 70.4 11 69 17.4
2008-12-18 13:01:17 51°22.405 2°57.124 70 11 71 17.4
2008-12-18 13:02:18 51°22.462 2°57.41 70.6 11.2 75 17.6
2008-12-18 13:03:17 51°22.519 2°57.685 70.3 11.1 74 17.5
2008-12-18 13:04:18 51°22.577 2°57.97 70.7 11 69 17.4
2008-12-18 13:05:17 51°22.637 2°58.243 69.1 11 66 17.3
2008-12-18 13:06:18 51°22.724 2°58.51 59.2 11.3 59 17.2
2008-12-18 13:07:18 51°22.823 2°58.761 58.8 11.1 57 17.2
2008-12-18 13:08:17 51°22.926 2°59.003 56.3 11.1 57 17.2
2008-12-18 13:09:18 51°23.03 2°59.253 56.5 11.1 56 17.2
2008-12-18 13:10:17 51°23.128 2°59.501 59.1 11.1 59 17
2008-12-18 13:11:18 51°23.23 2°59.757 56.9 11.1 55 17.3
2008-12-18 13:12:17 51°23.332 3°0.003 58 11.4 56 17.4
2008-12-18 13:13:18 51°23.433 3°0.262 58 11.3 56 17.5
2008-12-18 13:14:18 51°23.535 3°0.517 59.1 11.4 58 17.6
2008-12-18 13:15:17 51°23.629 3°0.774 59.4 11.5 61 17.2
2008-12-18 13:16:18 51°23.732 3°1.037 59.1 11.5 56 17.3
2008-12-18 13:17:17 51°23.833 3°1.292 58 11.7 56 17.3
2008-12-18 13:18:18 51°23.935 3°1.561 58.9 11.6 60 17.2
2008-12-18 13:19:17 51°24.035 3°1.821 57.1 11.6 58 17.1
2008-12-18 13:20:18 51°24.143 3°2.089 56.7 11.9 56 17
2008-12-18 13:21:17 51°24.242 3°2.357 60.3 11.9 60 16.5
2008-12-18 13:22:18 51°24.318 3°2.653 73.1 12 78 16
2008-12-18 13:23:17 51°24.321 3°2.965 99 12.3 108 15.5
2008-12-18 13:24:17 51°24.23 3°3.261 111.3 12.5 111 15
2008-12-18 13:25:18 51°24.166 3°3.58 103.3 12.4 106 14.5
2008-12-18 13:26:17 51°24.118 3°3.895 99.8 12.4 106 14.6
2008-12-18 13:27:18 51°24.058 3°4.219 103.4 12.5 105 14.2
2008-12-18 13:28:18 51°24.006 3°4.54 103.3 12.5 104 14.2
2008-12-18 13:29:18 51°23.956 3°4.863 101.6 12.4 103 14.7
2008-12-18 13:30:18 51°23.91 3°5.189 99 12.6 100 15.1
2008-12-18 13:31:18 51°23.869 3°5.518 99.9 12.7 103 15.5
2008-12-18 13:32:18 51°23.83 3°5.848 99 12.7 101 15.9
2008-12-18 13:33:18 51°23.799 3°6.181 96.5 12.7 98 16.5
2008-12-18 13:34:18 51°23.781 3°6.517 93.7 12.7 94 17.9
2008-12-18 13:35:17 51°23.77 3°6.848 90.5 12.6 93 18.3
2008-12-18 13:36:18 51°23.768 3°7.189 91.6 12.5 90 18.3
2008-12-18 13:37:18 51°23.765 3°7.52 91.5 12.5 91 18.8
2008-12-18 13:38:18 51°23.74 3°7.843 106.2 12.1 107 18.6
2008-12-18 13:39:18 51°23.654 3°8.14 117 12.4 117 18
2008-12-18 13:40:18 51°23.562 3°8.434 115.7 12.3 116 18.3
2008-12-18 13:41:18 51°23.464 3°8.724 118.5 12.5 116 18.5
2008-12-18 13:42:17 51°23.376 3°9.014 114.1 12.4 116 18
2008-12-18 13:43:18 51°23.281 3°9.312 115.8 12.4 119 16
2008-12-18 13:44:18 51°23.187 3°9.601 115 12.4 118 14.6
2008-12-18 13:45:18 51°23.087 3°9.889 117.2 12.4 119 14.1
2008-12-18 13:46:17 51°22.989 3°10.17 119 12.3 119 13.8
2008-12-18 13:47:18 51°22.881 3°10.452 120.8 12.2 122 13.7
2008-12-18 13:48:18 51°22.77 3°10.731 122.7 12.4 121 13.9
2008-12-18 13:49:18 51°22.664 3°11.016 120.2 12.5 120 14.5
2008-12-18 13:50:18 51°22.583 3°11.206 133.4 5.8 130 15.1
2008-12-18 13:51:17 51°22.534 3°11.286 148.4 3.3 136 15.5
2008-12-18 13:52:18 51°22.508 3°11.328 155.7 1.1 115 15.5
2008-12-18 13:53:18 51°22.506 3°11.352 156.3 0.9 92 15.5
2008-12-18 13:54:18 51°22.506 3°11.378 151.7 1 84 15.5
2008-12-18 13:55:17 51°22.509 3°11.404 146.9 1 80 15.5
2008-12-18 13:56:18 51°22.512 3°11.432 141.8 1 76 15.5
2008-12-18 13:57:18 51°22.515 3°11.459 138.9 1 78 15.4
2008-12-18 13:58:18 51°22.519 3°11.487 137.8 1.1 78 15.4
2008-12-18 13:59:18 51°22.519 3°11.529 125.2 2.8 101 15.3
2008-12-18 14:00:18 51°22.543 3°11.624 40.1 4.6 35 15.2
2008-12-18 14:01:18 51°22.605 3°11.611 312.2 3.6 309 14.9
2008-12-18 14:02:18 51°22.597 3°11.515 243.6 5.5 243 15.1
2008-12-18 14:03:18 51°22.533 3°11.292 247.2 11.1 247 15.4
2008-12-18 14:04:18 51°22.453 3°11.019 245.4 11.4 245 15.6
2008-12-18 14:05:18 51°22.371 3°10.748 244.3 11.4 242 16.5
2008-12-18 14:06:18 51°22.281 3°10.477 242.4 11.5 241 17.4
2008-12-18 14:07:18 51°22.181 3°10.217 239.4 11.5 239 14.5
2008-12-18 14:08:18 51°22.086 3°9.955 240.4 11.5 241 14
2008-12-18 14:09:18 51°21.997 3°9.697 239.9 9.3 239 13.3
2008-12-18 14:10:18 51°21.943 3°9.582 222.4 3.2 214 13
2008-12-18 14:11:18 51°21.904 3°9.563 200.6 2.6 188 12.9
2008-12-18 14:12:18 51°21.858 3°9.543 211.6 2.9 208 12.7
2008-12-18 14:13:18 51°21.831 3°9.496 244.9 2.1 246 12.4
2008-12-18 14:14:18 51°21.822 3°9.431 255.8 2.8 257 12.2
2008-12-18 14:15:18 51°21.808 3°9.359 248.7 2.4 249 12.3
2008-12-18 14:16:18 51°21.791 3°9.307 242.7 2.1 240 12.1
2008-12-18 14:17:18 51°21.774 3°9.256 244.5 2.3 243 12.2
2008-12-18 14:18:18 51°21.757 3°9.2 246.9 2.4 246 12
2008-12-18 14:19:18 51°21.742 3°9.143 247.3 2.3 247 11.9
2008-12-18 14:20:18 51°21.726 3°9.089 246.4 2.3 243 11.5
2008-12-18 14:21:18 51°21.711 3°9.034 245.7 2.2 245 11.6
2008-12-18 14:22:18 51°21.695 3°8.981 246.9 2.1 244 11.3
2008-12-18 14:23:18 51°21.678 3°8.931 245.1 2.1 242 11.3
2008-12-18 14:24:18 51°21.661 3°8.881 246.1 2.1 243 11
2008-12-18 14:25:18 51°21.646 3°8.831 248.5 2.1 246 11
2008-12-18 14:26:18 51°21.63 3°8.781 245.5 2 239 10.7
2008-12-18 14:27:17 51°21.614 3°8.732 246.2 2.1 244 10.8
2008-12-18 14:28:18 51°21.598 3°8.68 246.6 2.1 245 10.7
2008-12-18 14:29:18 51°21.581 3°8.63 245 2.2 242 10.7
2008-12-18 14:30:18 51°21.566 3°8.578 247.7 2.1 247 10.6
2008-12-18 14:31:18 51°21.551 3°8.526 246.9 2.2 244 10.7
2008-12-18 14:32:18 51°21.534 3°8.476 244.6 2.3 241 10.6
2008-12-18 14:33:18 51°21.516 3°8.421 247.2 2.4 244 10.7
2008-12-18 14:34:18 51°21.498 3°8.364 246.3 2.4 242 10.5
2008-12-18 14:35:18 51°21.48 3°8.307 246.1 2.5 242 10.4
2008-12-18 14:36:18 51°21.462 3°8.249 246.4 2.4 243 10.5
2008-12-18 14:37:18 51°21.444 3°8.192 246 2.4 244 10.5
2008-12-18 14:38:18 51°21.426 3°8.136 246.9 2.3 242 10.5
2008-12-18 14:39:18 51°21.409 3°8.08 247 2.3 246 10.4
2008-12-18 14:40:18 51°21.391 3°8.023 246 2.4 243 10.3
2008-12-18 14:41:18 51°21.373 3°7.967 245.5 2.4 243 10.2
2008-12-18 14:42:18 51°21.355 3°7.912 245.9 2.3 244 10.1
2008-12-18 14:43:18 51°21.365 3°7.862 294.9 2.4 315 10.3
2008-12-18 14:44:18 51°21.408 3°7.831 330.4 3.3 348 10.5
2008-12-18 14:45:18 51°21.462 3°7.857 24.2 3.7 40 10.6
2008-12-18 14:46:18 51°21.497 3°7.946 68.8 4.2 72 10.9
2008-12-18 14:47:18 51°21.499 3°8.054 108.8 4 102 11
2008-12-18 14:48:18 51°21.478 3°8.14 137.3 3 116 10.9
2008-12-18 14:49:18 51°21.455 3°8.198 162.7 2.2 126 10.8
2008-12-18 14:50:18 51°21.435 3°8.236 183.9 1.7 134 10.6
2008-12-18 14:51:18 51°21.409 3°8.249 211.4 3.3 202 10.5
2008-12-18 14:52:18 51°21.35 3°8.115 240.5 8.3 236 10.2
2008-12-18 14:53:18 51°21.255 3°7.902 235.2 10.6 233 9.5
2008-12-18 14:54:18 51°21.148 3°7.675 235.4 10.8 233 9.4
2008-12-18 14:55:18 51°21.041 3°7.446 233.9 10.7 231 9.2
2008-12-18 14:56:18 51°20.928 3°7.226 232.8 10.7 231 9
2008-12-18 14:57:18 51°20.82 3°7.001 236 10.7 236 9.1
2008-12-18 14:58:18 51°20.718 3°6.771 236.8 10.5 235 8.9
2008-12-18 14:59:18 51°20.618 3°6.545 236.6 10.4 235 8.9
2008-12-18 15:00:18 51°20.52 3°6.316 237.6 10.4 235 9
2008-12-18 15:01:18 51°20.421 3°6.087 237.6 10.5 236 9.3
2008-12-18 15:02:18 51°20.324 3°5.856 238.2 10.5 236 9.1
2008-12-18 15:03:18 51°20.232 3°5.62 239.1 10.4 237 9.4
2008-12-18 15:04:18 51°20.128 3°5.397 234.9 10.5 232 9.4
2008-12-18 15:05:18 51°20.021 3°5.178 234 10.5 231 9.5
2008-12-18 15:06:18 51°19.912 3°4.961 234.4 10.4 231 9.9
2008-12-18 15:07:18 51°19.802 3°4.746 232.8 10.4 231 9.8
2008-12-18 15:08:18 51°19.694 3°4.529 233.6 10.5 232 9.9
2008-12-18 15:09:18 51°19.589 3°4.312 235.4 10.3 234 9.9
2008-12-18 15:10:18 51°19.488 3°4.093 235.3 10.2 234 10
2008-12-18 15:11:18 51°19.387 3°3.877 235 10.1 232 10.1
2008-12-18 15:12:18 51°19.29 3°3.659 235.8 10.1 234 10.5
2008-12-18 15:13:18 51°19.196 3°3.436 238.4 10.1 239 10.2
2008-12-18 15:14:18 51°19.108 3°3.207 238.7 10.1 238 10.1
2008-12-18 15:15:18 51°19.016 3°2.982 237.6 10.1 237 10.2
2008-12-18 15:16:18 51°18.923 3°2.758 237.7 10.1 237 10.1
2008-12-18 15:17:18 51°18.829 3°2.536 237 10.1 235 10.2
2008-12-18 15:18:18 51°18.736 3°2.314 237.9 10 236 10.2
2008-12-18 15:19:18 51°18.643 3°2.094 237.9 10 236 10.1
2008-12-18 15:20:18 51°18.55 3°1.877 237 9.9 236 10
2008-12-18 15:21:18 51°18.458 3°1.656 237.8 10.1 236 10
2008-12-18 15:22:18 51°18.364 3°1.431 237.5 10.2 236 10
2008-12-18 15:23:18 51°18.268 3°1.208 236.9 10.2 235 10
2008-12-18 15:24:18 51°18.174 3°0.982 237.6 10.2 237 10.1
2008-12-18 15:25:18 51°18.078 3°0.757 237 10.2 235 10.3
2008-12-18 15:26:18 51°17.982 3°0.534 237.1 10.1 236 10.5
2008-12-18 15:27:18 51°17.886 3°0.316 237.1 10 235 10.5
2008-12-18 15:28:18 51°17.785 3°0.105 234.6 9.9 232 11
2008-12-18 15:29:18 51°17.687 2°59.893 235.5 9.8 234 11.1
2008-12-18 15:30:18 51°17.591 2°59.678 237.6 10 237 11.3
2008-12-18 15:31:18 51°17.497 2°59.462 236.8 9.8 237 11.5
2008-12-18 15:32:18 51°17.407 2°59.244 236.5 9.9 233 11.6
2008-12-18 15:33:18 51°17.308 2°59.033 235 10 233 11.9
2008-12-18 15:34:18 51°17.202 2°58.83 232.3 9.9 230 12
2008-12-18 15:35:18 51°17.102 2°58.617 235.2 10 234 12.1
2008-12-18 15:36:18 51°17.008 2°58.396 237.1 10.1 236 12.1
2008-12-18 15:37:18 51°16.913 2°58.173 238.2 10.1 236 12.1
2008-12-18 15:38:18 51°16.818 2°57.953 236.8 10.1 236 12.2
2008-12-18 15:39:18 51°16.722 2°57.732 236.9 10.2 236 12.4
2008-12-18 15:40:18 51°16.624 2°57.503 236.2 10.6 235 12.4
2008-12-18 15:41:18 51°16.523 2°57.273 235.6 10.4 233 12.4
2008-12-18 15:42:18 51°16.422 2°57.062 234.8 10 235 12.3
2008-12-18 15:43:18 51°16.33 2°56.841 237.1 10 237 12.3
2008-12-18 15:44:18 51°16.234 2°56.627 234.6 9.9 232 12.3
2008-12-18 15:45:18 51°16.136 2°56.414 234.5 9.9 235 12
2008-12-18 15:46:18 51°16.04 2°56.197 234.1 9.9 233 12.2
2008-12-18 15:47:18 51°15.938 2°55.988 232.3 10.1 232 12
2008-12-18 15:48:18 51°15.831 2°55.781 229.3 10.1 228 11.8
2008-12-18 15:49:18 51°15.717 2°55.589 229.3 10 225 11.9
2008-12-18 15:50:18 51°15.598 2°55.404 226.7 10.1 222 11.6
2008-12-18 15:51:18 51°15.465 2°55.237 220.7 10.1 218 11.3
2008-12-18 15:52:18 51°15.309 2°55.125 203.8 10.7 198 11
2008-12-18 15:53:18 51°15.144 2°55.042 202.3 10.3 198 11.3
2008-12-18 15:54:18 51°14.981 2°54.956 203.6 10.3 196 11.8
2008-12-18 15:55:18 51°14.822 2°54.868 206.4 10.1 192 12.3
2008-12-18 15:56:18 51°14.646 2°54.886 176.5 11 168 12.5
2008-12-18 15:57:18 51°14.47 2°54.968 161.5 11.5 150 13.2
2008-12-18 15:58:18 51°14.322 2°55.171 141.9 11.7 138 13.6
2008-12-18 15:59:18 51°14.176 2°55.375 150.7 11.3 147 -999